Latest Weather Observations for Horn Island

IDQ60801

Issued at 7:36 pm EST Monday 22 December 2014 (issued every 30 minutes, with the page automatically refreshed every 10 minutes)

About weather observations | Map of weather stations | Latest weather observations for QLD | Other Formats
Station Details ID: 027058 Name: HORN ISLAND Lat: -10.58 Lon: 142.29 Height: 4.0 m
Data from the previous 72 hours. | See also: Recent months at Horn Island
Date/Time
EST
Temp
°C
App
Temp
°C
Dew
Point
Rel
Hum
%
Delta-T
°C
Wind Press
QNH
hPa
Press
MSL
hPa
Rain
since 9 am
mm
Dir
 
Spd
km/h
Gust
km/h
Spd
kts
Gust
kts
22/07:30pm 29.5 31.2 24.1 72 3.8 ESE 22 33 12 18 1007.9 - 0.0
22/07:00pm 29.8 31.6 23.5 69 4.3 ESE 20 28 11 15 1007.7 - 0.0
22/06:30pm 30.0 30.3 22.9 65 4.9 E 26 35 14 19 1007.4 - 0.0
22/06:00pm 30.5 30.4 22.9 64 5.2 E 28 37 15 20 1007.0 1007.0 0.0
22/05:30pm 31.0 31.3 22.9 62 5.6 E 26 35 14 19 1007.0 - 0.0
22/05:00pm 31.5 31.9 23.1 61 5.8 E 26 39 14 21 1006.8 - 0.0
22/04:30pm 32.3 32.3 22.4 56 6.8 E 26 37 14 20 1006.6 - 0.0
22/04:00pm 32.2 31.8 22.3 56 6.8 E 28 37 15 20 1006.4 - 0.0
22/03:30pm 32.4 32.1 23.3 58 6.3 E 30 37 16 20 1006.5 - 0.0
22/03:00pm 32.1 31.2 22.8 58 6.4 E 32 41 17 22 1006.8 1006.8 0.0
22/02:30pm 32.2 31.6 22.6 57 6.6 E 30 41 16 22 1007.1 - 0.0
22/02:00pm 32.8 32.7 22.9 56 6.8 E 28 39 15 21 1007.3 - 0.0
22/01:30pm 32.1 30.9 22.2 56 6.8 E 32 41 17 22 1007.5 - 0.0
22/01:00pm 32.3 31.2 21.8 54 7.1 E 30 39 16 21 1007.7 - 0.0
22/12:30pm 32.9 32.7 22.7 55 7.0 E 28 37 15 20 1008.1 - 0.0
22/12:00pm 32.1 31.2 22.2 56 6.8 E 30 41 16 22 1008.2 1008.2 0.0
22/11:30am 32.0 30.5 21.8 54 6.9 E 32 39 17 21 1008.5 - 0.0
22/11:00am 33.2 32.8 22.3 52 7.5 E 28 39 15 21 1008.8 - 0.0
22/10:30am 32.6 33.4 23.8 59 6.1 E 26 35 14 19 1009.2 - 0.0
22/10:00am 31.4 31.0 22.4 59 6.1 E 28 35 15 19 1009.1 - 0.0
22/09:30am 32.2 33.4 23.2 59 6.2 E 22 33 12 18 1009.0 - 0.0
22/09:00am 31.4 31.4 22.4 59 6.1 ESE 26 32 14 17 1009.0 1009.0 0.0
22/08:30am 30.8 31.2 22.4 61 5.7 ESE 24 33 13 18 1008.9 - 0.0
22/08:00am 30.5 31.3 22.4 62 5.5 E 22 28 12 15 1008.7 - 0.0
22/07:30am 30.1 31.3 22.5 63 5.2 E 20 24 11 13 1008.6 - 0.0
22/07:00am 29.5 31.1 23.2 69 4.3 E 20 26 11 14 1008.4 - 0.0
22/06:30am 28.6 31.2 23.3 73 3.6 E 15 20 8 11 1008.3 - 0.0
22/06:00am 28.5 30.7 23.2 73 3.6 E 17 22 9 12 1007.9 1007.9 0.0
22/05:30am 28.5 30.7 23.2 73 3.6 E 17 22 9 12 1007.7 - 0.0
22/05:00am 28.6 30.8 23.3 73 3.6 E 17 24 9 13 1007.6 - 0.0
22/04:30am 28.8 30.7 23.5 73 3.6 E 19 28 10 15 1007.5 - 0.0
22/04:00am 28.8 30.0 23.2 71 3.8 E 22 32 12 17 1007.4 - 0.0
22/03:30am 28.5 29.8 23.4 74 3.5 E 22 28 12 15 1007.4 - 0.0
22/03:00am 29.0 30.6 23.2 71 4.0 E 20 37 11 20 1007.4 1007.4 0.0
22/02:30am 28.9 30.2 23.3 72 3.8 E 22 30 12 16 1007.7 - 0.0
22/02:00am 29.1 29.5 23.1 70 4.1 E 26 35 14 19 1007.8 - 0.0
22/01:30am 29.2 29.3 23.2 70 4.1 E 28 39 15 21 1008.1 - 0.0
22/01:00am 29.1 30.3 23.8 73 3.7 E 24 35 13 19 1008.1 - 0.0
22/12:30am 29.2 29.8 23.4 71 4.0 E 26 35 14 19 1008.5 - 0.0
22/12:00am 29.2 29.8 23.4 71 4.0 E 26 35 14 19 1009.0 1009.0 0.0
 
Date/Time
EST
Temp
°C
App
Temp
°C
Dew
Point
Rel
Hum
%
Delta-T
°C
Wind Press
QNH
hPa
Press
MSL
hPa
Rain
since 9 am
mm
Dir
 
Spd
km/h
Gust
km/h
Spd
kts
Gust
kts
21/11:30pm 29.3 30.6 24.0 73 3.7 E 24 35 13 19 1009.2 - 0.0
21/11:00pm 29.3 30.3 24.2 74 3.5 E 26 37 14 20 1009.1 - 0.0
21/10:30pm 29.4 30.2 24.5 75 3.4 E 28 41 15 22 1008.8 - 0.0
21/10:00pm 29.3 29.7 23.7 72 3.9 E 28 35 15 19 1008.6 - 0.0
21/09:30pm 29.3 30.8 24.4 75 3.4 E 24 33 13 18 1008.3 - 0.0
21/09:00pm 29.5 30.5 24.1 72 3.8 ESE 26 37 14 20 1008.1 1008.1 0.0
21/08:30pm 29.4 30.6 23.8 72 3.9 E 24 35 13 19 1007.8 - 0.0
21/08:00pm 29.5 30.6 23.7 71 4.0 ESE 24 33 13 18 1007.6 - 0.0
21/07:30pm 29.7 30.4 23.6 69 4.2 E 26 37 14 20 1007.2 - 0.0
21/07:00pm 29.7 30.8 23.6 69 4.2 ESE 24 32 13 17 1006.9 - 0.0
21/06:30pm 29.9 31.3 23.6 69 4.3 E 22 32 12 17 1006.7 - 0.0
21/06:00pm 30.4 32.2 23.6 67 4.7 E 20 32 11 17 1006.6 1006.6 0.0
21/05:30pm 30.9 31.5 22.8 62 5.5 E 24 32 13 17 1006.5 - 0.0
21/05:00pm 31.1 31.8 23.0 62 5.6 E 24 33 13 18 1006.5 - 0.0
21/04:30pm 31.9 32.7 23.2 60 6.0 E 24 32 13 17 1006.6 - 0.0
21/04:00pm 31.9 32.5 23.4 60 5.9 E 26 35 14 19 1006.9 - 0.0
21/03:30pm 32.4 33.4 22.8 57 6.6 E 22 30 12 16 1007.0 - 0.0
21/03:00pm 32.5 33.5 22.9 57 6.6 E 22 32 12 17 1007.4 1007.4 0.0
21/02:30pm 32.5 33.2 22.9 57 6.6 E 24 32 13 17 1007.9 - 0.0
21/02:00pm 32.9 33.7 23.2 56 6.7 E 24 33 13 18 1008.3 - 0.0
21/01:30pm 32.2 33.0 23.2 59 6.2 E 24 32 13 17 1008.7 - 0.0
21/01:00pm 32.7 33.6 23.3 57 6.5 ENE 24 32 13 17 1009.0 - 0.0
21/12:30pm 32.6 33.9 23.3 58 6.4 E 22 32 12 17 1009.4 - 0.0
21/12:00pm 32.2 33.5 22.6 57 6.6 E 20 30 11 16 1009.7 1009.7 0.0
21/11:30am 31.9 33.0 22.3 56 6.5 E 20 33 11 18 1010.0 - 0.0
21/11:00am 31.9 33.0 22.3 56 6.5 ENE 20 28 11 15 1010.1 - 0.0
21/10:30am 31.3 32.4 22.0 57 6.3 ENE 19 28 10 15 1010.4 - 0.0
21/10:00am 31.4 32.1 21.6 56 6.6 ENE 20 28 11 15 1010.3 - 0.0
21/09:30am 30.5 32.1 22.9 64 5.2 E 19 24 10 13 1010.2 - 0.0
21/09:00am 31.3 32.6 22.3 58 6.1 E 19 28 10 15 1010.0 1010.0 0.0
21/08:30am 31.3 32.7 22.6 60 5.9 E 19 26 10 14 1010.0 - 0.0
21/08:00am 29.8 31.4 22.8 66 4.8 E 19 26 10 14 1009.5 - 0.0
21/07:30am 29.9 31.3 22.6 65 5.0 E 19 22 10 12 1009.1 - 0.0
21/07:00am 29.0 32.6 23.7 73 3.7 SE 11 13 6 7 1009.0 - 0.0
21/06:30am 28.5 31.4 23.2 73 3.6 ESE 13 17 7 9 1008.7 - 0.0
21/06:00am 28.3 31.1 23.0 73 3.6 ESE 13 19 7 10 1008.6 1008.6 0.0
21/05:30am 28.0 30.7 22.9 74 3.5 ESE 13 17 7 9 1008.5 - 0.0
21/05:00am 27.9 31.4 22.8 74 3.5 E 9 13 5 7 1008.3 - 0.0
21/04:30am 28.1 30.7 22.6 72 3.7 E 13 17 7 9 1008.0 - 0.0
21/04:00am 28.1 30.5 22.3 70 3.9 E 13 17 7 9 1007.9 - 0.0
21/03:30am 28.0 31.3 22.5 72 3.7 E 9 15 5 8 1007.9 - 0.0
21/03:00am 28.0 30.6 22.0 70 4.0 E 11 15 6 8 1007.9 1007.9 0.0
21/02:30am 28.1 30.0 22.1 70 4.0 E 15 20 8 11 1008.1 - 0.0
21/02:00am 28.1 30.3 21.9 69 4.2 E 13 20 7 11 1008.4 - 0.0
21/01:30am 28.1 30.4 21.4 67 4.5 E 11 17 6 9 1008.4 - 0.0
21/01:00am 28.2 30.2 21.5 67 4.5 E 13 19 7 10 1008.6 - 0.0
21/12:30am 28.4 30.1 20.9 64 5.0 ENE 13 20 7 11 1009.2 - 0.0
21/12:00am 28.4 29.6 20.7 63 5.1 E 15 20 8 11 1009.5 1009.5 0.0
 
Date/Time
EST
Temp
°C
App
Temp
°C
Dew
Point
Rel
Hum
%
Delta-T
°C
Wind Press
QNH
hPa
Press
MSL
hPa
Rain
since 9 am
mm
Dir
 
Spd
km/h
Gust
km/h
Spd
kts
Gust
kts
20/11:30pm 28.4 29.6 20.7 63 5.1 E 15 20 8 11 1009.7 - 0.0
20/11:00pm 28.5 29.4 20.8 63 5.1 E 17 20 9 11 1009.9 - 0.0
20/10:30pm 28.7 28.6 19.9 59 5.8 E 20 28 11 15 1009.6 - 0.0
20/10:00pm 28.9 29.9 19.5 57 6.1 E 13 17 7 9 1009.6 - 0.0
20/09:30pm 29.1 29.0 18.8 53 6.6 E 17 24 9 13 1009.4 - 0.0
20/09:00pm 29.1 28.8 19.1 54 6.5 E 19 26 10 14 1009.2 1009.2 0.0
20/08:30pm 29.2 29.2 19.8 57 6.2 ESE 19 24 10 13 1008.9 - 0.0
20/08:00pm 29.3 31.1 21.8 64 5.0 E 15 20 8 11 1008.6 - 0.0
20/07:30pm 29.4 30.7 21.6 63 5.2 ESE 17 24 9 13 1008.2 - 0.0
20/07:00pm 29.6 32.0 21.5 61 5.4 E 11 15 6 8 1007.8 - 0.0
20/06:30pm 29.4 30.6 21.4 62 5.4 E 17 20 9 11 1007.4 - 0.0
20/06:00pm 29.6 30.6 21.8 63 5.3 E 19 24 10 13 1006.9 1006.9 0.0
20/05:30pm 29.9 30.8 21.6 61 5.6 E 19 24 10 13 1006.6 - 0.0
20/05:00pm 30.1 31.1 21.7 60 5.7 E 19 26 10 14 1006.4 - 0.0
20/04:30pm 30.2 31.2 22.1 62 5.5 E 20 28 11 15 1006.3 - 0.0
20/04:00pm 31.1 32.2 22.4 60 5.9 ENE 20 28 11 15 1006.3 - 0.0
20/03:30pm 31.1 32.1 22.1 58 6.1 ENE 20 28 11 15 1006.4 - 0.0
20/03:00pm 30.7 31.8 22.3 61 5.7 ENE 20 32 11 17 1006.7 1006.7 0.0
20/02:30pm 31.1 32.2 22.4 60 5.9 ENE 20 30 11 16 1007.2 - 0.0
20/02:00pm 30.8 31.8 22.1 59 5.9 ENE 20 28 11 15 1007.6 - 0.0
20/01:30pm 31.4 32.0 22.1 57 6.3 ENE 22 32 12 17 1007.8 - 0.0
20/01:00pm 32.6 33.7 23.0 57 6.6 ENE 22 30 12 16 1008.2 - 0.0
20/12:30pm 32.0 33.1 22.4 57 6.6 ENE 20 30 11 16 1008.6 - 0.0
20/12:00pm 31.7 32.6 21.5 54 6.9 NE 19 28 10 15 1008.8 1008.8 0.0
20/11:30am 31.9 33.0 22.0 55 6.7 ENE 19 28 10 15 1009.5 - 0.0
20/11:00am 31.0 32.5 22.0 58 6.1 ENE 17 24 9 13 1009.9 - 0.0
20/10:30am 32.0 34.3 22.7 58 6.4 ENE 15 26 8 14 1010.1 - 0.0
20/10:00am 30.8 32.8 21.6 58 6.2 ENE 13 20 7 11 1010.2 - 0.0
20/09:30am 30.8 32.6 21.9 59 6.0 ENE 15 19 8 10 1010.4 - 0.0
20/09:00am 30.2 32.1 22.1 62 5.5 ENE 15 20 8 11 1010.5 1010.5 0.0
20/08:30am 30.2 32.5 22.1 62 5.5 E 13 20 7 11 1010.7 - 0.0
20/08:00am 30.5 33.5 22.7 63 5.3 E 11 15 6 8 1010.5 - 0.0
20/07:30am 29.9 32.7 22.3 63 5.2 E 11 17 6 9 1010.3 - 0.0
20/07:00am 28.7 33.6 23.1 71 3.8 E 2 6 1 3 1010.0 - 0.0
20/06:30am 27.0 30.9 23.0 79 2.7 SE 7 9 4 5 1009.4 - 0.0
20/06:00am 26.2 31.3 22.7 81 2.4 CALM 0 0 0 0 1009.1 1009.1 0.0
20/05:30am 26.4 31.0 22.5 79 2.6 SE 2 7 1 4 1008.8 - 0.0
20/05:00am 27.0 30.7 22.6 77 3.0 ESE 7 9 4 5 1008.5 - 0.0
20/04:30am 26.6 31.9 23.1 81 2.4 CALM 0 0 0 0 1008.4 - 0.0
20/04:00am 25.5 29.6 22.2 82 2.2 SE 4 7 2 4 1008.3 - 0.0
20/03:30am 25.9 30.7 22.2 80 2.5 CALM 0 0 0 0 1008.2 - 0.0
20/03:00am 26.6 30.6 22.0 76 3.1 ESE 4 7 2 4 1008.4 1008.4 0.0
20/02:30am 27.3 30.7 22.0 73 3.6 ESE 7 9 4 5 1008.4 - 0.0
20/02:00am 28.1 31.4 21.9 69 4.2 E 7 9 4 5 1009.0 - 0.0
20/01:30am 28.5 31.9 22.0 68 4.4 E 7 11 4 6 1009.2 - 0.0
20/01:00am 28.6 32.2 22.1 68 4.4 E 6 7 3 4 1009.7 - 0.0
20/12:30am 28.2 31.7 22.2 70 4.0 ENE 7 11 4 6 1010.2 - 0.0
20/12:00am 28.3 31.4 22.1 69 4.2 E 9 13 5 7 1010.6 1010.6 0.0
 
Date/Time
EST
Temp
°C
App
Temp
°C
Dew
Point
Rel
Hum
%
Delta-T
°C
Wind Press
QNH
hPa
Press
MSL
hPa
Rain
since 9 am
mm
Dir
 
Spd
km/h
Gust
km/h
Spd
kts
Gust
kts
19/11:30pm 28.1 30.8 22.1 70 4.0 ENE 11 13 6 7 1010.6 - 0.0
19/11:00pm 26.7 30.7 22.1 76 3.1 SW 4 11 2 6 1010.6 - 0.0
19/10:30pm 26.2 30.4 21.0 73 3.4 CALM 0 0 0 0 1010.6 - 0.0
19/10:00pm 27.8 30.8 20.9 66 4.6 E 6 9 3 5 1010.4 - 0.0
19/09:30pm 27.6 30.5 20.7 66 4.6 E 6 7 3 4 1009.9 - 0.0
19/09:00pm 28.5 31.3 20.8 63 5.1 E 7 9 4 5 1009.8 1009.8 0.0
19/08:30pm 28.6 30.9 20.6 62 5.3 E 9 11 5 6 1009.4 - 0.0
19/08:00pm 28.7 30.9 20.4 60 5.5 ENE 9 11 5 6 1009.2 - 0.0

Other Formats:

Comma delimited format used in spreadsheet applications
http://www.bom.gov.au/fwo/IDQ60801/IDQ60801.94174.axf

JavaScript Object Notation format (JSON) in row-major order
http://www.bom.gov.au/fwo/IDQ60801/IDQ60801.94174.json